Time;durP1;ratioP1;P1;durP2;ratioP2;P2;SDS_P1;SDS_P2;PMS_P1;PMS_P2;Temp;Humidity;BMP_temperature;BMP_pressure;BME280_temperature;BME280_humidity;BME280_pressure;Samples;Min_cycle;Max_cycle;Signal;HPM_P1;HPM_P2
2022/01/19 00:02:02;;;;;;;33.05;24.10;;;8.20;79.60;;;;;;5030618;28;20492;-78
2022/01/19 00:04:28;;;;;;;30.88;23.20;;;8.20;79.30;;;;;;5012149;28;20465;-78
2022/01/19 00:06:53;;;;;;;31.10;22.90;;;8.20;79.30;;;;;;5030465;28;20037;-79
2022/01/19 00:09:19;;;;;;;31.52;22.33;;;8.20;79.50;;;;;;5030082;28;20454;-79
2022/01/19 00:11:45;;;;;;;35.97;22.42;;;8.20;79.00;;;;;;5030377;28;20045;-79
2022/01/19 00:14:10;;;;;;;31.63;22.33;;;8.20;78.70;;;;;;5030790;28;20116;-78
2022/01/19 00:16:36;;;;;;;29.38;21.23;;;8.30;78.50;;;;;;5032027;28;20469;-79
2022/01/19 00:19:02;;;;;;;26.95;20.25;;;8.30;78.50;;;;;;5034474;28;20041;-80
2022/01/19 00:21:27;;;;;;;33.53;23.05;;;8.30;78.20;;;;;;5035016;28;20389;-80
2022/01/19 00:23:53;;;;;;;31.90;22.38;;;8.30;77.60;;;;;;5034665;28;20037;-79
2022/01/19 00:26:19;;;;;;;27.20;21.02;;;8.20;77.60;;;;;;5035092;28;20477;-80
2022/01/19 00:28:44;;;;;;;33.35;23.77;;;8.30;77.40;;;;;;5017215;28;20034;-80
2022/01/19 00:31:10;;;;;;;29.27;22.05;;;8.20;76.90;;;;;;5016605;28;20038;-79
2022/01/19 00:33:36;;;;;;;28.98;20.08;;;8.10;77.10;;;;;;5031137;28;20041;-78
2022/01/19 00:36:02;;;;;;;29.00;20.52;;;8.10;77.10;;;;;;5016591;28;20091;-78
2022/01/19 00:38:28;;;;;;;31.35;21.17;;;8.10;77.20;;;;;;5017449;28;20037;-78
2022/01/19 00:40:55;;;;;;;30.35;21.65;;;8.10;76.60;;;;;;5016724;28;20042;-78
2022/01/19 00:43:21;;;;;;;29.65;21.92;;;8.00;76.60;;;;;;5034354;28;20049;-78
2022/01/19 00:45:46;;;;;;;34.33;22.13;;;8.10;77.00;;;;;;5034237;28;20466;-77
2022/01/19 00:48:12;;;;;;;28.27;21.33;;;8.10;77.10;;;;;;5034461;28;20037;-77
2022/01/19 00:50:38;;;;;;;30.85;19.80;;;8.00;77.10;;;;;;5017240;28;20033;-77
2022/01/19 00:53:03;;;;;;;27.45;21.10;;;8.00;77.50;;;;;;5034179;28;20048;-77
2022/01/19 00:55:29;;;;;;;31.38;22.17;;;7.90;77.30;;;;;;5034224;28;20037;-78
2022/01/19 00:57:55;;;;;;;29.45;21.02;;;7.80;77.50;;;;;;5034108;28;20029;-77
2022/01/19 01:00:24;;;;;;;30.05;21.80;;;7.80;77.50;;;;;;5033991;28;20072;-78
2022/01/19 01:02:50;;;;;;;28.38;20.55;;;7.80;78.30;;;;;;5034250;28;20040;-77
2022/01/19 01:05:16;;;;;;;30.85;22.17;;;7.80;77.80;;;;;;5033038;28;20030;-77
2022/01/19 01:07:42;;;;;;;29.40;20.92;;;7.70;77.80;;;;;;5016175;28;20037;-77
2022/01/19 01:10:11;;;;;;;33.88;24.60;;;7.70;78.00;;;;;;5033619;28;20041;-77
2022/01/19 01:12:51;;;;;;;27.67;21.00;;;7.70;78.30;;;;;;5034165;28;20048;-77
2022/01/19 04:00:57;;;;;;;19.55;13.77;;;6.70;73.70;;;;;;5031104;28;20556;-79
2022/01/19 04:03:36;;;;;;;20.88;15.75;;;6.70;73.50;;;;;;5034606;28;20133;-78
2022/01/19 04:06:15;;;;;;;25.23;17.80;;;6.70;73.30;;;;;;5031559;28;20068;-78
2022/01/19 04:08:41;;;;;;;25.83;17.20;;;6.70;73.30;;;;;;5028794;28;20124;-78
2022/01/19 04:11:07;;;;;;;25.05;16.77;;;6.50;73.10;;;;;;5017051;28;20120;-78
2022/01/19 04:13:56;;;;;;;25.35;17.38;;;6.50;73.10;;;;;;5035030;28;20446;-78
2022/01/19 04:16:19;;;;;;;25.02;16.63;;;6.40;73.90;;;;;;5034138;28;20059;-79
2022/01/19 04:18:45;;;;;;;22.50;14.50;;;6.40;73.60;;;;;;5017446;28;20046;-78
2022/01/19 04:21:10;;;;;;;20.55;14.13;;;6.40;73.70;;;;;;5034432;28;20076;-80
2022/01/19 04:23:36;;;;;;;21.23;14.52;;;6.50;73.40;;;;;;5016810;28;20416;-79
2022/01/19 04:26:03;;;;;;;18.67;13.65;;;6.60;72.50;;;;;;5016738;28;20128;-79
2022/01/19 04:28:29;;;;;;;17.83;12.27;;;6.60;72.50;;;;;;5034044;28;20029;-78
2022/01/19 04:30:54;;;;;;;16.23;11.88;;;6.70;72.70;;;;;;5017014;28;20083;-78
2022/01/19 04:33:24;;;;;;;18.73;13.38;;;6.70;72.20;;;;;;5034444;28;20087;-78
2022/01/19 04:35:52;;;;;;;22.92;13.27;;;6.70;72.10;;;;;;5033967;28;20504;-78
2022/01/19 05:07:37;;;;;;;16.98;11.35;;;6.70;70.90;;;;;;5031210;28;20128;-78
2022/01/19 05:15:37;;;;;;;13.55;10.20;;;6.80;70.70;;;;;;5029983;28;20096;-80
2022/01/19 05:18:04;;;;;;;14.77;10.00;;;6.80;70.50;;;;;;5032761;28;20045;-80
2022/01/19 05:20:30;;;;;;;13.18;10.45;;;6.80;70.70;;;;;;5033969;28;20385;-80
2022/01/19 05:22:56;;;;;;;17.10;10.73;;;6.80;70.80;;;;;;5033193;28;20121;-79
2022/01/19 05:25:21;;;;;;;15.32;10.95;;;6.80;70.50;;;;;;5033003;28;20502;-79
2022/01/19 05:27:47;;;;;;;13.93;10.80;;;6.80;70.70;;;;;;5029373;28;20038;-78
2022/01/19 05:30:14;;;;;;;13.55;9.70;;;6.70;70.70;;;;;;5031677;28;20124;-79
2022/01/19 05:32:40;;;;;;;12.52;9.68;;;6.70;70.80;;;;;;5032429;28;20033;-78
2022/01/19 05:35:06;;;;;;;12.73;8.27;;;6.70;70.60;;;;;;5032417;28;20036;-79
2022/01/19 05:37:36;;;;;;;16.83;10.98;;;6.80;70.60;;;;;;5032755;28;20520;-79
2022/01/19 05:40:09;;;;;;;;;;;6.80;69.30;;;;;;5015372;28;20084;-78
2022/01/19 05:42:36;;;;;;;13.70;9.55;;;6.80;70.20;;;;;;5027693;28;19913;-78
2022/01/19 05:45:02;;;;;;;12.75;8.75;;;6.80;69.60;;;;;;5028937;28;20041;-79
2022/01/19 05:49:53;;;;;;;13.70;9.50;;;6.80;69.60;;;;;;4333899;22;20082;-79
2022/01/19 05:52:22;;;;;;;13.95;9.32;;;6.80;70.00;;;;;;5013811;28;20032;-79
2022/01/19 05:54:48;;;;;;;13.98;9.43;;;6.80;69.60;;;;;;5006296;28;20029;-81
2022/01/19 05:57:14;;;;;;;13.90;9.57;;;6.80;69.60;;;;;;5013656;28;20477;-82
2022/01/19 05:59:40;;;;;;;12.70;8.80;;;6.80;70.00;;;;;;5013808;28;20389;-79
2022/01/19 06:02:06;;;;;;;14.38;9.77;;;6.80;70.00;;;;;;5011366;28;20029;-78
2022/01/19 06:04:32;;;;;;;20.33;10.40;;;6.80;69.90;;;;;;5013930;28;20485;-79
2022/01/19 06:06:58;;;;;;;14.13;10.07;;;6.80;69.70;;;;;;5012395;28;20029;-81
2022/01/19 06:09:35;;;;;;;15.02;10.05;;;6.60;70.40;;;;;;5013874;28;20099;-80
2022/01/19 06:12:17;;;;;;;13.95;9.82;;;6.70;70.50;;;;;;5013915;28;20075;-80
2022/01/19 06:14:45;;;;;;;17.00;10.65;;;6.70;70.60;;;;;;4993931;28;20476;-80
2022/01/19 06:17:13;;;;;;;15.57;10.80;;;6.70;70.90;;;;;;5014589;28;20030;-79
2022/01/19 06:19:39;;;;;;;12.45;9.52;;;6.70;71.10;;;;;;5014497;28;20041;-83
2022/01/19 06:22:05;;;;;;;13.73;9.05;;;6.70;71.20;;;;;;5013841;28;20046;-80
2022/01/19 06:24:31;;;;;;;19.83;10.48;;;6.60;71.00;;;;;;4991937;28;20453;-81
2022/01/19 06:26:57;;;;;;;12.48;9.68;;;6.70;70.80;;;;;;5006150;28;20037;-79
2022/01/19 06:29:22;;;;;;;13.10;9.00;;;6.60;70.90;;;;;;5005610;28;20406;-81
2022/01/19 06:31:49;;;;;;;10.55;8.45;;;6.70;71.00;;;;;;4999989;28;20042;-79
2022/01/19 06:34:15;;;;;;;14.45;10.30;;;6.60;71.10;;;;;;4996679;28;20038;-80
2022/01/19 06:36:41;;;;;;;13.38;10.15;;;6.50;71.50;;;;;;4998044;28;20063;-81
2022/01/19 06:39:07;;;;;;;15.65;10.55;;;6.50;72.20;;;;;;5013565;28;20499;-81
2022/01/19 06:41:32;;;;;;;14.48;10.20;;;6.50;72.10;;;;;;5009032;28;20541;-79
2022/01/19 06:43:58;;;;;;;12.32;9.43;;;6.60;71.60;;;;;;4998395;28;20109;-81
2022/01/19 06:46:24;;;;;;;20.35;12.13;;;6.50;71.40;;;;;;4987930;28;20038;-80
2022/01/19 06:48:50;;;;;;;14.52;10.75;;;6.50;71.60;;;;;;5013114;28;20041;-80
2022/01/19 06:51:16;;;;;;;13.55;10.40;;;6.50;71.80;;;;;;4995565;28;20053;-79
2022/01/19 06:53:42;;;;;;;15.27;10.95;;;6.50;72.30;;;;;;5007295;28;20042;-81
2022/01/19 06:56:07;;;;;;;15.40;10.68;;;6.50;71.70;;;;;;4990037;28;20073;-79
2022/01/19 06:58:33;;;;;;;16.70;10.65;;;6.50;72.20;;;;;;5010360;28;20042;-80
2022/01/19 07:00:59;;;;;;;14.40;10.50;;;6.50;71.70;;;;;;4986387;28;20484;-80
2022/01/19 07:03:25;;;;;;;16.25;10.65;;;6.50;71.90;;;;;;4986892;28;20083;-81
2022/01/19 07:05:51;;;;;;;12.50;9.10;;;6.50;72.10;;;;;;4992989;28;20065;-84
2022/01/19 07:08:17;;;;;;;14.50;10.20;;;6.50;73.10;;;;;;4988973;28;20366;-83
2022/01/19 07:10:42;;;;;;;13.38;9.93;;;6.60;72.10;;;;;;5013379;28;20034;-85
2022/01/19 07:13:08;;;;;;;16.55;10.82;;;6.70;71.20;;;;;;5003596;28;20121;-85
2022/01/19 07:15:36;;;;;;;13.20;10.02;;;6.70;71.50;;;;;;4989781;28;20490;-83
2022/01/19 07:18:02;;;;;;;15.18;11.20;;;6.80;71.80;;;;;;4996476;28;20034;-83
2022/01/19 07:20:28;;;;;;;18.98;13.15;;;6.80;71.40;;;;;;4996520;28;20034;-82
2022/01/19 07:22:56;;;;;;;14.65;11.10;;;6.60;70.90;;;;;;5013713;28;20393;-81
2022/01/19 07:25:22;;;;;;;15.40;9.82;;;6.60;71.80;;;;;;5013208;28;20038;-82
2022/01/19 07:27:48;;;;;;;16.23;11.52;;;6.50;72.00;;;;;;4995953;28;20483;-81
2022/01/19 07:30:14;;;;;;;14.07;11.18;;;6.60;72.90;;;;;;5018909;28;20029;-80
2022/01/19 07:32:40;;;;;;;17.65;11.75;;;6.50;71.70;;;;;;5015103;28;20049;-80
2022/01/19 07:35:06;;;;;;;13.77;10.60;;;6.50;71.90;;;;;;5015926;28;20157;-83
2022/01/19 07:37:33;;;;;;;14.20;10.15;;;6.50;72.30;;;;;;5019240;28;20080;-80
2022/01/19 07:39:59;;;;;;;13.43;10.50;;;6.60;72.50;;;;;;5008744;28;20124;-82
2022/01/19 07:42:25;;;;;;;14.23;10.35;;;6.60;72.50;;;;;;4995574;28;20061;-83
2022/01/19 07:44:53;;;;;;;14.77;11.45;;;6.70;72.80;;;;;;5001253;28;20489;-82
2022/01/19 07:47:20;;;;;;;13.98;11.13;;;6.80;72.90;;;;;;5002654;28;20042;-83
2022/01/19 07:49:46;;;;;;;17.20;12.35;;;6.90;72.60;;;;;;5004961;28;20049;-80
2022/01/19 07:52:12;;;;;;;15.38;10.70;;;6.90;71.80;;;;;;5017320;28;20101;-79
2022/01/19 07:54:38;;;;;;;15.63;10.95;;;7.00;73.00;;;;;;5020054;28;20042;-79
2022/01/19 07:57:05;;;;;;;14.70;11.15;;;6.90;72.60;;;;;;5007025;28;20061;-79
2022/01/19 07:59:31;;;;;;;18.35;12.18;;;7.00;73.80;;;;;;5018950;28;20525;-79
2022/01/19 08:01:57;;;;;;;33.55;24.23;;;7.00;73.20;;;;;;4997037;28;20435;-78
2022/01/19 08:04:23;;;;;;;340.92;251.35;;;7.10;73.30;;;;;;5020962;28;20092;-78
2022/01/19 08:06:54;;;;;;;90.22;69.03;;;7.10;73.00;;;;;;5002367;28;20088;-79
2022/01/19 08:09:25;;;;;;;42.47;30.63;;;7.20;73.60;;;;;;5004479;28;20034;-78
2022/01/19 08:11:52;;;;;;;21.20;16.35;;;7.20;73.90;;;;;;5016509;28;20393;-79
2022/01/19 08:14:18;;;;;;;17.92;13.52;;;7.10;72.20;;;;;;5016601;28;20045;-79
2022/01/19 08:16:44;;;;;;;21.15;14.15;;;7.10;73.90;;;;;;5014008;28;20088;-79
2022/01/19 08:19:10;;;;;;;21.67;16.08;;;7.00;72.00;;;;;;5010581;28;20038;-78
2022/01/19 08:21:36;;;;;;;19.65;14.57;;;7.00;70.80;;;;;;5012639;28;20045;-79
2022/01/19 08:24:01;;;;;;;22.92;14.95;;;6.90;71.50;;;;;;5013860;28;20140;-79
2022/01/19 08:26:27;;;;;;;17.00;12.30;;;6.90;71.80;;;;;;5010704;28;20092;-79
2022/01/19 08:28:53;;;;;;;21.73;14.23;;;7.00;74.10;;;;;;5012732;28;20437;-79
2022/01/19 08:31:18;;;;;;;17.73;13.13;;;7.00;73.20;;;;;;4994885;28;20045;-79
2022/01/19 08:33:44;;;;;;;17.25;13.05;;;7.00;73.20;;;;;;5013514;28;20121;-79
2022/01/19 08:36:10;;;;;;;19.77;14.43;;;7.00;72.90;;;;;;4995281;28;20034;-79
2022/01/19 08:38:36;;;;;;;23.85;17.23;;;7.10;73.20;;;;;;5015259;28;20458;-79
2022/01/19 08:41:02;;;;;;;19.70;15.18;;;7.10;72.70;;;;;;5016003;28;20164;-79
2022/01/19 08:43:28;;;;;;;28.35;20.35;;;7.20;73.80;;;;;;4995084;28;20457;-79
2022/01/19 08:45:55;;;;;;;37.65;26.30;;;7.20;72.00;;;;;;5016121;28;20029;-79
2022/01/19 08:48:20;;;;;;;23.63;18.40;;;7.00;71.40;;;;;;4998152;28;20077;-79
2022/01/19 08:50:46;;;;;;;20.33;15.55;;;7.00;72.20;;;;;;5016349;28;20081;-79
2022/01/19 08:53:12;;;;;;;19.27;14.93;;;7.10;72.60;;;;;;4997689;28;20034;-79
2022/01/19 08:55:39;;;;;;;18.17;14.15;;;7.30;73.30;;;;;;4998002;28;20092;-79
2022/01/19 08:58:06;;;;;;;32.17;21.10;;;7.50;72.30;;;;;;4998654;28;20064;-79
2022/01/19 09:00:33;;;;;;;23.00;17.63;;;7.70;70.50;;;;;;5012073;28;20056;-79
2022/01/19 09:02:59;;;;;;;24.00;17.60;;;7.80;71.20;;;;;;5016022;28;20394;-79
2022/01/19 09:05:25;;;;;;;27.70;20.45;;;7.80;70.10;;;;;;4998344;28;20030;-79
2022/01/19 09:07:52;;;;;;;25.25;18.85;;;7.80;70.90;;;;;;4996617;28;20514;-79
2022/01/19 09:10:18;;;;;;;26.83;20.45;;;7.90;70.90;;;;;;4979936;28;20038;-79
2022/01/19 09:12:44;;;;;;;24.52;18.25;;;8.00;70.80;;;;;;4997206;28;20100;-79
2022/01/19 09:15:11;;;;;;;27.67;20.25;;;8.10;70.70;;;;;;5008842;28;20378;-80
2022/01/19 09:17:39;;;;;;;22.98;17.63;;;8.20;70.40;;;;;;5011291;28;20030;-81
2022/01/19 09:20:06;;;;;;;22.17;17.92;;;8.30;70.90;;;;;;5016292;28;20371;-83
2022/01/19 09:22:33;;;;;;;24.73;18.55;;;8.40;70.80;;;;;;4998342;28;20045;-82
2022/01/19 09:24:58;;;;;;;25.10;19.45;;;8.50;70.70;;;;;;5016034;28;20132;-82
2022/01/19 09:27:24;;;;;;;24.60;19.33;;;8.60;70.20;;;;;;5016210;28;20029;-82
2022/01/19 09:29:50;;;;;;;28.27;22.42;;;8.70;70.70;;;;;;5017024;28;20037;-83
2022/01/19 09:32:16;;;;;;;27.40;18.60;;;8.60;67.60;;;;;;5016064;28;20076;-82
2022/01/19 09:34:48;;;;;;;25.02;19.00;;;8.70;69.30;;;;;;5016292;28;20038;-83
2022/01/19 09:37:16;;;;;;;35.80;29.48;;;8.70;69.80;;;;;;5016142;28;20046;-83
2022/01/19 09:39:42;;;;;;;36.08;26.92;;;8.60;67.20;;;;;;5015143;28;20042;-82
2022/01/19 09:42:08;;;;;;;36.45;24.42;;;8.20;67.90;;;;;;5016361;28;20533;-81
2022/01/19 09:44:34;;;;;;;24.85;18.83;;;8.00;68.50;;;;;;4997860;28;20045;-81
2022/01/19 09:47:00;;;;;;;25.35;20.63;;;8.30;69.90;;;;;;5014268;28;20030;-79
2022/01/19 09:49:26;;;;;;;30.65;22.33;;;8.50;68.40;;;;;;4997255;28;20080;-80
2022/01/19 09:51:54;;;;;;;27.73;21.50;;;8.60;67.80;;;;;;5014663;28;20049;-81
2022/01/19 09:54:25;;;;;;;24.40;20.05;;;8.70;67.90;;;;;;4996844;28;20053;-82
2022/01/19 09:56:52;;;;;;;25.05;18.77;;;8.80;67.80;;;;;;5013916;28;20034;-81
2022/01/19 09:59:20;;;;;;;27.25;18.80;;;9.00;67.80;;;;;;4992754;28;20069;-81
2022/01/19 10:01:55;;;;;;;24.50;18.60;;;9.20;68.70;;;;;;4996208;28;20037;-81
2022/01/19 10:04:24;;;;;;;26.67;20.00;;;9.40;67.80;;;;;;4996387;28;20500;-81
2022/01/19 10:07:07;;;;;;;24.40;18.60;;;9.40;65.30;;;;;;4996539;28;20077;-82
2022/01/19 10:09:33;;;;;;;23.10;16.83;;;9.60;66.90;;;;;;4992898;28;20048;-81
2022/01/19 10:17:30;;;;;;;22.60;17.30;;;10.20;66.90;;;;;;4940225;28;20036;-81
2022/01/19 10:19:55;;;;;;;29.13;22.10;;;10.20;65.20;;;;;;4996900;28;20042;-79
2022/01/19 10:22:26;;;;;;;23.67;18.70;;;10.00;61.50;;;;;;4995789;28;20053;-81
2022/01/19 10:25:03;;;;;;;20.42;16.75;;;9.90;62.70;;;;;;4996184;28;20105;-81
2022/01/19 10:27:34;;;;;;;19.40;13.65;;;10.00;63.70;;;;;;5009672;28;20029;-82
2022/01/19 10:30:04;;;;;;;18.85;14.43;;;10.20;64.60;;;;;;5014512;28;20053;-81
2022/01/19 10:32:47;;;;;;;17.85;14.77;;;10.50;65.40;;;;;;5014295;28;20042;-82
2022/01/19 10:35:33;;;;;;;17.98;14.65;;;10.80;64.00;;;;;;5014714;28;20061;-82
2022/01/19 10:38:16;;;;;;;18.92;13.85;;;11.00;64.80;;;;;;5011786;28;20049;-81
2022/01/19 10:41:04;;;;;;;16.52;13.30;;;11.40;65.40;;;;;;5015043;28;20038;-81
2022/01/19 10:43:32;;;;;;;18.60;13.85;;;11.70;62.10;;;;;;4997155;28;20072;-82
2022/01/19 10:46:25;;;;;;;23.08;17.63;;;11.80;61.20;;;;;;4997323;28;20478;-82
2022/01/19 10:49:05;;;;;;;30.20;21.65;;;11.70;57.50;;;;;;4996847;28;20040;-81
2022/01/19 10:51:34;;;;;;;20.60;15.13;;;11.40;58.30;;;;;;4981540;28;20037;-81
2022/01/19 10:54:22;;;;;;;18.52;13.73;;;11.60;61.50;;;;;;5007215;28;20038;-80
2022/01/19 10:56:54;;;;;;;15.15;12.55;;;12.00;62.40;;;;;;4996728;28;20038;-80
2022/01/19 10:59:25;;;;;;;24.15;16.88;;;12.30;62.40;;;;;;4997990;28;20103;-81
2022/01/19 11:01:55;;;;;;;25.08;20.10;;;12.60;56.50;;;;;;5013528;28;20038;-81
2022/01/19 11:04:23;;;;;;;19.17;14.35;;;12.20;56.30;;;;;;5007716;28;20487;-81
2022/01/19 11:06:51;;;;;;;16.90;13.40;;;12.40;60.00;;;;;;4997558;28;20034;-82
2022/01/19 11:09:22;;;;;;;18.55;14.30;;;12.60;60.40;;;;;;5013514;28;20116;-81
2022/01/19 11:11:49;;;;;;;18.05;14.23;;;12.70;59.20;;;;;;4993777;28;20029;-81
2022/01/19 11:14:15;;;;;;;20.13;16.67;;;13.00;60.00;;;;;;4996373;28;20042;-81
2022/01/19 11:16:42;;;;;;;28.77;18.08;;;13.20;59.50;;;;;;5014557;28;20112;-80
2022/01/19 11:19:09;;;;;;;29.88;17.65;;;13.30;58.20;;;;;;5014553;28;20038;-82
2022/01/19 11:22:10;;;;;;;27.88;16.98;;;13.40;58.60;;;;;;5013970;28;20038;-81
2022/01/19 11:25:04;;;;;;;20.95;15.25;;;13.70;58.00;;;;;;5014226;28;20037;-81
2022/01/19 11:27:48;;;;;;;20.35;13.05;;;13.90;57.40;;;;;;4991396;28;20037;-81
2022/01/19 11:30:28;;;;;;;20.52;15.25;;;14.10;54.30;;;;;;5004778;28;20042;-81
2022/01/19 11:33:09;;;;;;;22.35;15.02;;;14.10;55.70;;;;;;5007731;28;20393;-81
2022/01/19 11:35:36;;;;;;;24.00;16.27;;;14.20;55.40;;;;;;5003340;28;20066;-81
2022/01/19 11:38:33;;;;;;;21.42;15.25;;;14.40;55.80;;;;;;4984491;28;20094;-81
2022/01/19 11:41:08;;;;;;;25.63;17.73;;;14.50;54.80;;;;;;5014129;28;20064;-81
2022/01/19 11:43:36;;;;;;;28.42;18.17;;;14.50;54.00;;;;;;5008298;28;20026;-81
2022/01/19 11:46:04;;;;;;;28.45;18.42;;;14.70;55.60;;;;;;4986582;28;20046;-81
2022/01/19 11:48:35;;;;;;;31.33;18.88;;;14.90;56.60;;;;;;4982824;28;20308;-80
2022/01/19 11:51:22;;;;;;;30.25;20.30;;;15.10;55.30;;;;;;4984053;28;20510;-79
2022/01/19 11:54:18;;;;;;;35.10;20.25;;;15.40;55.90;;;;;;4993739;28;20033;-80
2022/01/19 11:56:58;;;;;;;37.55;19.95;;;15.70;55.30;;;;;;4991768;28;20548;-81
2022/01/19 11:59:30;;;;;;;27.35;19.95;;;16.20;54.50;;;;;;4990218;28;20064;-81
2022/01/19 12:02:32;;;;;;;27.48;21.30;;;16.70;53.70;;;;;;5012915;28;20049;-81
2022/01/19 12:04:58;;;;;;;27.38;23.20;;;17.10;49.50;;;;;;4978080;28;20505;-78
2022/01/19 12:07:45;;;;;;;28.67;21.75;;;17.50;49.80;;;;;;4992870;28;20037;-79
2022/01/19 12:10:10;;;;;;;29.70;21.92;;;18.00;49.10;;;;;;5007516;28;20045;-79
2022/01/19 12:12:47;;;;;;;31.38;22.15;;;18.30;47.60;;;;;;5008195;28;20041;-79
2022/01/19 12:15:52;;;;;;;31.13;22.95;;;18.60;47.10;;;;;;5012594;28;20037;-79
2022/01/19 12:18:50;;;;;;;33.80;23.50;;;18.90;45.40;;;;;;4994764;28;20049;-79
2022/01/19 12:21:21;;;;;;;30.90;21.98;;;18.80;45.60;;;;;;4998384;28;20048;-79
2022/01/19 12:23:49;;;;;;;32.25;24.65;;;19.10;45.00;;;;;;5014979;28;20070;-79
2022/01/19 12:26:15;;;;;;;30.63;21.63;;;18.70;43.70;;;;;;5009049;28;20055;-78
2022/01/19 12:28:46;;;;;;;30.30;22.85;;;18.90;44.50;;;;;;5010097;28;20084;-79
2022/01/19 12:31:33;;;;;;;22.73;20.33;;;19.20;44.30;;;;;;4995655;28;20042;-79
2022/01/19 12:34:11;;;;;;;28.48;24.27;;;19.40;43.30;;;;;;5010812;28;20030;-80
2022/01/19 12:36:58;;;;;;;30.70;24.17;;;19.50;41.60;;;;;;5010688;28;20471;-79
2022/01/19 12:39:26;;;;;;;23.38;19.83;;;18.30;44.10;;;;;;5008470;28;20076;-79
2022/01/19 12:42:38;;;;;;;22.55;19.02;;;18.30;45.70;;;;;;5012143;28;20053;-79
2022/01/19 12:45:26;;;;;;;26.50;19.90;;;18.70;45.90;;;;;;4984836;28;20039;-79
2022/01/19 12:48:06;;;;;;;25.45;21.58;;;19.10;44.20;;;;;;5012681;28;20038;-81
2022/01/19 12:50:37;;;;;;;32.63;26.73;;;19.00;43.40;;;;;;4990359;28;20093;-81
2022/01/19 12:53:25;;;;;;;23.27;19.63;;;18.60;43.70;;;;;;5012147;28;20034;-80
2022/01/19 12:56:00;;;;;;;21.50;18.35;;;18.30;45.30;;;;;;5011012;28;20034;-80
2022/01/19 12:58:28;;;;;;;22.75;20.38;;;18.40;45.40;;;;;;4998170;28;20049;-80
2022/01/19 13:00:57;;;;;;;21.98;19.42;;;18.30;45.00;;;;;;5010824;28;20131;-80
2022/01/19 13:03:30;;;;;;;26.52;23.65;;;18.40;46.20;;;;;;5010524;28;20467;-81
2022/01/19 13:06:03;;;;;;;22.25;19.55;;;18.10;45.20;;;;;;4992187;28;20034;-81
2022/01/19 13:08:43;;;;;;;23.73;20.00;;;17.80;46.80;;;;;;5007963;28;20041;-80
2022/01/19 13:11:49;;;;;;;20.50;18.35;;;18.10;46.80;;;;;;5009954;28;20029;-80
2022/01/19 13:14:16;;;;;;;21.38;18.30;;;18.10;45.20;;;;;;4969087;28;20042;-82
2022/01/19 13:16:47;;;;;;;19.02;16.75;;;17.70;47.20;;;;;;5006725;28;20068;-82
2022/01/19 13:19:17;;;;;;;19.85;17.33;;;18.00;47.40;;;;;;5011800;28;20046;-82
2022/01/19 13:21:44;;;;;;;27.23;22.38;;;18.30;46.30;;;;;;4991251;28;20042;-83
2022/01/19 13:24:26;;;;;;;22.70;18.63;;;17.60;46.60;;;;;;5007136;28;20034;-82
2022/01/19 13:26:55;;;;;;;23.25;19.38;;;17.60;47.10;;;;;;5008843;28;20080;-84
2022/01/19 13:29:31;;;;;;;26.48;19.38;;;17.50;47.30;;;;;;5007299;28;20049;-84
2022/01/19 13:32:19;;;;;;;28.67;20.98;;;17.10;47.80;;;;;;5009021;28;20079;-83
2022/01/19 13:35:02;;;;;;;24.00;20.10;;;17.00;48.00;;;;;;5006426;28;20034;-81
2022/01/19 13:37:37;;;;;;;25.85;20.10;;;16.90;48.60;;;;;;5003326;28;20060;-81
2022/01/19 13:40:12;;;;;;;23.42;20.27;;;16.40;49.70;;;;;;5005664;28;20048;-81
2022/01/19 13:42:53;;;;;;;29.42;21.05;;;16.10;50.10;;;;;;4987905;28;20035;-83
2022/01/19 13:46:13;;;;;;;26.52;20.33;;;15.90;51.10;;;;;;5009088;28;20485;-83
2022/01/19 13:48:28;;;;;;;30.50;22.65;;;15.70;51.80;;;;;;4999954;28;20083;-82
2022/01/19 13:50:56;;;;;;;25.58;21.73;;;15.40;52.70;;;;;;5007074;28;20034;-82
2022/01/19 13:53:35;;;;;;;23.35;19.85;;;15.00;53.40;;;;;;5008586;28;20195;-82
2022/01/19 13:56:03;;;;;;;26.37;20.33;;;14.70;54.70;;;;;;5009396;28;20026;-82
2022/01/19 13:58:35;;;;;;;41.00;32.95;;;14.60;55.30;;;;;;5003795;28;20038;-82
2022/01/19 14:01:07;;;;;;;30.63;25.98;;;14.10;57.50;;;;;;5003404;28;20041;-82
2022/01/19 14:03:49;;;;;;;31.98;27.42;;;13.80;58.50;;;;;;5006936;28;20030;-82
2022/01/19 14:06:29;;;;;;;37.38;31.83;;;13.70;59.00;;;;;;4989010;28;20129;-81
2022/01/19 14:09:20;;;;;;;40.95;33.13;;;13.40;60.30;;;;;;5005848;28;20034;-81
2022/01/19 14:11:49;;;;;;;46.20;36.90;;;13.00;61.40;;;;;;5004853;28;20046;-81
2022/01/19 14:14:25;;;;;;;35.60;27.88;;;12.60;62.90;;;;;;5005763;28;20030;-81
2022/01/19 14:16:53;;;;;;;32.33;26.70;;;12.20;63.50;;;;;;4990555;28;20041;-81
2022/01/19 14:19:28;;;;;;;44.75;36.20;;;12.30;63.50;;;;;;5005984;28;20068;-81
2022/01/19 14:21:56;;;;;;;34.85;28.00;;;12.00;65.20;;;;;;5004844;28;20471;-81
2022/01/19 14:24:23;;;;;;;37.47;28.85;;;12.00;65.50;;;;;;4988483;28;20048;-81
2022/01/19 14:26:55;;;;;;;38.30;28.15;;;12.00;64.90;;;;;;4986527;28;20038;-81
2022/01/19 14:29:21;;;;;;;38.95;29.65;;;11.90;64.50;;;;;;4990429;28;20287;-81
2022/01/19 14:31:57;;;;;;;39.50;29.00;;;11.70;66.20;;;;;;5007578;28;20474;-81
2022/01/19 14:34:36;;;;;;;35.20;26.65;;;11.70;65.60;;;;;;5008293;28;20580;-81
2022/01/19 14:37:19;;;;;;;39.85;29.25;;;11.60;66.40;;;;;;4992808;28;20502;-81
2022/01/19 14:39:47;;;;;;;42.83;30.90;;;11.50;67.60;;;;;;5010719;28;20096;-83
2022/01/19 14:42:14;;;;;;;38.88;29.25;;;11.20;68.90;;;;;;4991401;28;20036;-82
2022/01/19 14:44:47;;;;;;;55.63;37.03;;;11.30;67.30;;;;;;5012626;28;20763;-82
2022/01/19 14:47:36;;;;;;;41.63;30.48;;;11.10;69.70;;;;;;5012597;28;20041;-82
2022/01/19 14:50:36;;;;;;;59.33;40.77;;;11.10;69.60;;;;;;4989663;28;20514;-82
2022/01/19 14:53:04;;;;;;;39.20;27.10;;;10.80;71.50;;;;;;4967065;28;20033;-81
2022/01/19 14:55:33;;;;;;;48.33;33.35;;;10.70;70.30;;;;;;5012662;28;20034;-81
2022/01/19 22:05:10;;;;;;;62.97;38.42;;;7.40;83.20;;;;;;5017867;23;20056;-94
2022/01/19 22:10:25;;;;;;;105.85;64.38;;;7.30;83.60;;;;;;5001392;28;20042;-93
2022/01/19 22:12:59;;;;;;;93.03;59.08;;;6.90;86.00;;;;;;4999884;28;20390;-92
2022/01/19 22:15:25;;;;;;;103.18;67.65;;;6.90;86.80;;;;;;5015517;28;20042;-92
2022/01/19 22:17:52;;;;;;;69.70;43.28;;;6.90;86.40;;;;;;5000329;28;20041;-92
2022/01/19 22:20:18;;;;;;;107.45;68.65;;;7.00;86.50;;;;;;5014492;28;20038;-93
2022/01/19 22:22:44;;;;;;;112.97;70.50;;;7.10;86.20;;;;;;4999765;28;20033;-93
2022/01/19 22:25:10;;;;;;;98.20;65.90;;;7.00;86.00;;;;;;5018567;28;20056;-94
2022/01/19 22:27:37;;;;;;;113.93;67.60;;;7.00;86.20;;;;;;5017756;28;20096;-93
2022/01/19 22:30:11;;;;;;;69.75;43.70;;;7.00;86.20;;;;;;4997109;28;20488;-93
2022/01/19 22:32:38;;;;;;;74.97;46.17;;;7.10;86.10;;;;;;5008270;28;20030;-92
2022/01/19 22:35:05;;;;;;;88.57;55.17;;;7.20;85.70;;;;;;4997033;28;20065;-93
2022/01/19 22:37:34;;;;;;;107.35;68.63;;;7.30;85.40;;;;;;5012834;28;20444;-92
2022/01/19 22:40:01;;;;;;;68.45;43.70;;;7.20;85.50;;;;;;5020004;28;20049;-95
2022/01/19 22:42:30;;;;;;;75.88;44.38;;;7.20;86.30;;;;;;5017108;28;20152;-92
2022/01/19 22:44:56;;;;;;;106.97;63.45;;;7.20;86.00;;;;;;4997248;28;20066;-93
2022/01/19 22:47:22;;;;;;;78.15;50.00;;;7.30;85.70;;;;;;5019296;28;20136;-92
2022/01/19 22:50:03;;;;;;;75.03;45.03;;;7.30;85.80;;;;;;5017367;28;20034;-93
2022/01/19 22:52:29;;;;;;;109.38;67.80;;;7.30;85.70;;;;;;5017050;28;20072;-95
2022/01/19 22:54:58;;;;;;;113.43;71.13;;;7.20;85.50;;;;;;5016280;28;20037;-92
2022/01/19 22:57:27;;;;;;;87.15;54.10;;;7.00;86.30;;;;;;4995673;28;20080;-92
2022/01/19 22:59:55;;;;;;;67.20;43.45;;;7.00;87.00;;;;;;5013309;28;20046;-92
2022/01/19 23:02:24;;;;;;;69.88;42.53;;;7.10;87.00;;;;;;5028083;28;20241;-92
2022/01/19 23:04:50;;;;;;;84.55;52.83;;;7.30;86.20;;;;;;4995410;28;20136;-93
2022/01/19 23:07:16;;;;;;;106.75;62.35;;;7.40;86.10;;;;;;5027744;28;20080;-92
2022/01/19 23:09:44;;;;;;;76.80;46.67;;;7.30;86.20;;;;;;4995316;28;20121;-92
2022/01/19 23:12:11;;;;;;;70.03;41.35;;;7.20;86.70;;;;;;4996120;28;20057;-91
2022/01/19 23:14:39;;;;;;;69.80;39.97;;;7.40;86.30;;;;;;5013859;28;20497;-91
2022/01/19 23:17:07;;;;;;;107.05;64.00;;;7.40;85.80;;;;;;4995268;28;20037;-92
2022/01/19 23:19:34;;;;;;;88.93;50.33;;;7.40;85.70;;;;;;4991698;28;20046;-93
2022/01/19 23:22:00;;;;;;;122.40;72.55;;;7.40;86.30;;;;;;4995551;28;20123;-92
2022/01/19 23:24:25;;;;;;;107.47;58.67;;;7.30;86.90;;;;;;5013396;28;20044;-93
2022/01/19 23:26:58;;;;;;;81.18;45.53;;;7.10;88.00;;;;;;5012745;28;20393;-92
2022/01/19 23:29:26;;;;;;;100.30;55.47;;;7.20;87.70;;;;;;5016891;28;20105;-92